Time;durP1;ratioP1;P1;durP2;ratioP2;P2;SDS_P1;SDS_P2;PMS_P1;PMS_P2;Temp;Humidity;BMP_temperature;BMP_pressure;BME280_temperature;BME280_humidity;BME280_pressure;Samples;Min_cycle;Max_cycle;Signal;HPM_P1;HPM_P2
2022/11/21 00:01:22;;;;;;;4.43;1.73;;;6.50;99.90;;;6.27;100.00;99318.63;4973354;28;20244;-75
2022/11/21 00:03:53;;;;;;;4.30;1.75;;;6.40;99.90;;;6.20;100.00;99328.19;4964102;28;20600;-75
2022/11/21 00:06:22;;;;;;;3.78;1.50;;;6.30;99.90;;;6.09;100.00;99308.84;4975532;28;20322;-75
2022/11/21 00:08:49;;;;;;;4.53;1.75;;;6.20;99.90;;;6.14;100.00;99322.03;4981654;28;20244;-75
2022/11/21 00:11:17;;;;;;;3.60;1.55;;;6.20;99.90;;;6.19;100.00;99318.56;4991236;28;20299;-75
2022/11/21 00:13:44;;;;;;;4.45;1.77;;;6.30;99.90;;;6.29;100.00;99328.28;4976690;28;20241;-75
2022/11/21 00:16:14;;;;;;;4.93;2.00;;;6.40;99.90;;;6.24;100.00;99327.38;4970129;28;20241;-75
2022/11/21 00:18:42;;;;;;;4.75;1.77;;;6.30;99.90;;;6.28;100.00;99330.91;4971741;28;20295;-75
2022/11/21 00:21:16;;;;;;;3.58;1.50;;;6.40;99.90;;;6.14;100.00;99316.78;4966050;28;20233;-75
2022/11/21 00:23:45;;;;;;;5.18;2.28;;;6.30;99.90;;;6.20;100.00;99329.94;4978378;28;20228;-75
2022/11/21 00:26:15;;;;;;;4.45;1.85;;;6.30;99.90;;;6.27;100.00;99329.13;4981875;28;20236;-75
2022/11/21 00:28:42;;;;;;;3.53;1.67;;;6.30;99.90;;;6.16;100.00;99323.78;4974108;28;20236;-75
2022/11/21 00:31:22;;;;;;;5.53;2.20;;;6.20;99.90;;;6.11;100.00;99315.00;4972502;28;20233;-75
2022/11/21 00:33:49;;;;;;;2.88;1.42;;;6.20;99.90;;;6.09;100.00;99314.97;4966377;28;20233;-75
2022/11/21 00:36:16;;;;;;;4.00;1.70;;;6.20;99.90;;;6.10;100.00;99329.88;4952350;28;20237;-75
2022/11/21 00:38:44;;;;;;;5.38;2.38;;;6.20;99.90;;;6.02;100.00;99330.66;4975993;28;20231;-75
2022/11/21 00:41:11;;;;;;;3.90;1.67;;;6.10;99.90;;;5.92;100.00;99316.56;4977520;28;20283;-75
2022/11/21 00:43:38;;;;;;;3.25;1.52;;;6.10;99.90;;;6.02;100.00;99334.16;4977362;28;20227;-75
2022/11/21 00:46:05;;;;;;;0.45;0.45;;;6.10;99.90;;;5.92;100.00;99323.56;4972256;28;20244;-75
2022/11/21 00:48:33;;;;;;;0.55;0.55;;;6.00;99.90;;;5.89;100.00;99315.63;4971309;28;20240;-75
2022/11/21 00:51:00;;;;;;;0.60;0.60;;;6.00;99.90;;;6.02;100.00;99325.41;4977422;28;20255;-75
2022/11/21 00:53:29;;;;;;;0.60;0.60;;;6.10;99.90;;;5.89;100.00;99303.44;4971336;28;20257;-75
2022/11/21 00:55:56;;;;;;;0.60;0.60;;;6.00;99.90;;;6.23;100.00;99329.97;4966694;28;20309;-75
2022/11/21 00:58:24;;;;;;;0.65;0.65;;;6.20;99.90;;;6.46;100.00;99333.66;4958405;28;20225;-75
2022/11/21 01:00:52;;;;;;;0.60;0.60;;;6.50;99.90;;;6.61;100.00;99333.81;4974592;28;20237;-75
2022/11/21 01:03:19;;;;;;;0.52;0.52;;;6.60;99.90;;;6.71;100.00;99327.75;4969850;28;20260;-75
2022/11/21 01:05:46;;;;;;;0.82;0.82;;;6.70;99.90;;;6.87;100.00;99320.84;4968290;28;20299;-76
2022/11/21 01:08:14;;;;;;;0.70;0.70;;;6.90;99.90;;;6.88;100.00;99313.84;4970516;28;20760;-75
2022/11/21 01:10:41;;;;;;;0.70;0.70;;;6.90;99.90;;;6.84;100.00;99296.31;4966321;28;20245;-76
2022/11/21 01:13:08;;;;;;;0.85;0.82;;;6.90;99.90;;;6.93;100.00;99298.97;4974995;28;20298;-75
2022/11/21 01:15:36;;;;;;;0.60;0.57;;;7.00;99.90;;;6.91;100.00;99275.31;4973579;28;20292;-76
2022/11/21 01:18:03;;;;;;;0.70;0.70;;;7.00;99.90;;;6.86;100.00;99263.91;4963778;28;20264;-75
2022/11/21 01:20:30;;;;;;;0.80;0.77;;;6.90;99.90;;;6.94;100.00;99258.69;4968542;28;20296;-75
2022/11/21 01:22:57;;;;;;;0.60;0.60;;;7.00;99.90;;;6.87;100.00;99255.16;4970368;28;20283;-75
2022/11/21 01:25:24;;;;;;;0.85;0.85;;;6.90;99.90;;;6.76;100.00;99246.34;4968013;28;20613;-75
2022/11/21 01:27:52;;;;;;;0.73;0.73;;;6.80;99.90;;;6.78;100.00;99249.84;4969799;28;20241;-75
2022/11/21 01:30:19;;;;;;;0.60;0.60;;;6.80;99.90;;;6.74;100.00;99238.44;4969727;28;20233;-76
2022/11/21 01:32:49;;;;;;;0.70;0.65;;;6.90;99.90;;;6.69;100.00;99223.53;4976449;28;20311;-75
2022/11/21 01:35:17;;;;;;;1.08;0.88;;;6.80;99.90;;;6.65;100.00;99227.91;4964687;28;20316;-75
2022/11/21 01:37:48;;;;;;;0.98;0.88;;;6.70;99.90;;;6.60;100.00;99234.88;4973635;28;20339;-75
2022/11/21 01:40:16;;;;;;;0.70;0.70;;;6.70;99.90;;;6.50;100.00;99237.41;4974752;28;20295;-75
2022/11/21 01:43:05;;;;;;;0.60;0.60;;;6.60;99.90;;;6.38;100.00;99232.94;4970948;28;20286;-75
2022/11/21 01:46:18;;;;;;;2.53;1.27;;;6.50;99.90;;;6.14;100.00;99222.28;4951688;28;20238;-75
2022/11/21 01:48:57;;;;;;;3.38;1.55;;;6.30;99.90;;;6.24;100.00;99245.09;4969395;28;20232;-75
2022/11/21 01:51:37;;;;;;;2.78;1.30;;;6.30;99.90;;;6.29;100.00;99254.78;4966957;28;20223;-75
2022/11/21 01:54:23;;;;;;;4.43;1.95;;;6.30;99.90;;;6.36;100.00;99245.19;4961501;28;20264;-75
2022/11/21 01:57:04;;;;;;;3.40;1.55;;;6.40;99.90;;;6.33;100.00;99238.16;4968247;28;20253;-74
2022/11/21 01:59:47;;;;;;;5.10;2.35;;;6.40;99.90;;;6.31;100.00;99247.78;4968322;28;20237;-75
2022/11/21 02:02:19;;;;;;;3.72;1.70;;;6.40;99.90;;;6.34;100.00;99245.19;4977823;28;20233;-75
2022/11/21 02:04:49;;;;;;;1.88;1.05;;;6.40;99.90;;;6.37;100.00;99252.19;4978200;28;20256;-75
2022/11/21 02:07:19;;;;;;;0.68;0.65;;;6.40;99.90;;;6.37;100.00;99263.59;4967526;28;20241;-75
2022/11/21 02:09:51;;;;;;;3.53;1.55;;;6.40;99.90;;;6.49;100.00;99260.16;4978139;28;20235;-74
2022/11/21 02:12:47;;;;;;;22.63;9.23;;;6.50;99.90;;;6.36;100.00;99243.44;4958813;28;20225;-75
2022/11/21 02:15:14;;;;;;;5.70;2.42;;;6.50;99.90;;;6.20;100.00;99240.69;4965355;28;20279;-75
2022/11/21 02:17:41;;;;;;;3.42;1.48;;;6.30;99.90;;;6.20;100.00;99235.44;4964334;28;20225;-75
2022/11/21 02:20:13;;;;;;;3.55;1.60;;;6.30;99.90;;;6.20;100.00;99245.94;4963447;28;20233;-76
2022/11/21 02:23:13;;;;;;;6.70;2.67;;;6.30;99.90;;;6.18;100.00;99243.31;4965284;28;20253;-75
2022/11/21 02:25:42;;;;;;;0.88;0.88;;;6.30;99.90;;;6.13;100.00;99255.53;4966948;28;20232;-75
2022/11/21 02:28:16;;;;;;;0.95;0.77;;;6.20;99.90;;;6.12;100.00;99253.75;4971101;28;20327;-75
2022/11/21 02:30:43;;;;;;;5.32;2.25;;;6.20;99.90;;;6.13;100.00;99271.28;4967526;28;20300;-75
2022/11/21 02:33:11;;;;;;;4.75;2.05;;;6.20;99.90;;;6.16;100.00;99270.41;4965939;28;20225;-75
2022/11/21 02:35:39;;;;;;;3.75;1.67;;;6.20;99.90;;;6.27;100.00;99282.75;4974185;28;20290;-75
2022/11/21 02:38:31;;;;;;;0.60;0.60;;;6.30;99.90;;;6.33;100.00;99281.94;4968340;28;20260;-75
2022/11/21 02:41:13;;;;;;;0.60;0.60;;;6.40;99.90;;;6.33;100.00;99284.56;4968164;28;20229;-75
2022/11/21 02:43:52;;;;;;;5.22;2.28;;;6.40;99.90;;;6.37;100.00;99292.47;4963614;28;20229;-75
2022/11/21 02:46:19;;;;;;;3.00;1.40;;;6.40;99.90;;;6.37;100.00;99294.22;4977315;28;20307;-75
2022/11/21 02:48:47;;;;;;;0.93;0.75;;;6.50;99.90;;;6.38;100.00;99291.59;4979018;28;20284;-75
2022/11/21 02:51:14;;;;;;;1.10;0.95;;;6.40;99.90;;;6.45;100.00;99291.63;4962188;28;20221;-75
2022/11/21 02:53:41;;;;;;;1.25;1.10;;;6.50;99.90;;;6.48;100.00;99296.91;4979951;28;20241;-75
2022/11/21 02:56:08;;;;;;;2.92;1.30;;;6.50;99.90;;;6.52;100.00;99290.84;4976464;28;20305;-75
2022/11/21 02:58:35;;;;;;;4.70;2.08;;;6.60;99.90;;;6.46;100.00;99283.78;4961606;28;20235;-75
2022/11/21 03:01:02;;;;;;;0.63;0.63;;;6.60;99.90;;;6.49;100.00;99290.78;4954818;28;20289;-75
2022/11/21 03:03:29;;;;;;;3.05;1.35;;;6.60;99.90;;;6.59;100.00;99288.28;4973404;28;20285;-75
2022/11/21 03:05:56;;;;;;;3.00;1.50;;;6.60;99.90;;;6.64;100.00;99285.69;4973988;28;20237;-75
2022/11/21 03:08:23;;;;;;;3.35;1.55;;;6.70;99.90;;;6.56;100.00;99283.00;4972771;28;20229;-75
2022/11/21 03:10:50;;;;;;;3.67;1.77;;;6.70;99.90;;;6.56;100.00;99276.88;4971005;28;20667;-75
2022/11/21 03:13:17;;;;;;;0.60;0.60;;;6.60;99.90;;;6.58;100.00;99280.38;4964220;28;20311;-75
2022/11/21 03:15:45;;;;;;;0.70;0.70;;;6.60;99.90;;;6.62;100.00;99288.28;4972860;28;20240;-75
2022/11/21 03:18:12;;;;;;;0.70;0.70;;;6.70;99.90;;;6.67;100.00;99283.94;4972294;28;20323;-75
2022/11/21 03:20:39;;;;;;;4.70;2.10;;;6.70;99.90;;;6.72;100.00;99276.09;4965925;28;20263;-75
2022/11/21 03:23:06;;;;;;;4.22;1.85;;;6.80;99.90;;;6.70;100.00;99278.72;4965322;28;20225;-75
2022/11/21 03:25:33;;;;;;;0.35;0.35;;;6.80;99.90;;;6.65;100.00;99272.56;4963870;28;20237;-75
2022/11/21 03:28:00;;;;;;;0.60;0.60;;;6.70;99.90;;;6.63;100.00;99276.91;4972508;28;20319;-75
2022/11/21 03:30:27;;;;;;;0.50;0.50;;;6.70;99.90;;;6.61;100.00;99272.53;4986381;28;20260;-76
2022/11/21 03:32:55;;;;;;;0.45;0.45;;;6.70;99.90;;;6.71;100.00;99280.47;4975126;28;20737;-76
2022/11/21 03:35:23;;;;;;;0.65;0.65;;;6.70;99.90;;;6.70;100.00;99272.56;4971683;28;20291;-76
2022/11/21 03:37:50;;;;;;;1.17;1.08;;;6.80;99.90;;;6.70;100.00;99272.56;4974542;28;20243;-75
2022/11/21 03:40:17;;;;;;;3.75;1.67;;;6.80;99.90;;;6.68;100.00;99264.69;4969293;28;24749;-75
2022/11/21 03:42:44;;;;;;;3.47;1.50;;;6.80;99.90;;;6.62;100.00;99253.25;4977864;28;20263;-76
2022/11/21 03:45:11;;;;;;;0.77;0.77;;;6.70;99.90;;;6.59;100.00;99267.25;4977137;28;20275;-76
2022/11/21 03:47:38;;;;;;;1.00;0.90;;;6.70;99.90;;;6.63;100.00;99266.41;4965973;28;21106;-75
2022/11/21 03:50:06;;;;;;;0.70;0.70;;;6.70;99.90;;;6.69;100.00;99262.94;4971848;28;20324;-75
2022/11/21 03:52:33;;;;;;;0.90;0.80;;;6.80;99.90;;;6.56;100.00;99256.75;4970928;28;20327;-75
2022/11/21 03:55:00;;;;;;;0.60;0.60;;;6.70;99.90;;;6.49;100.00;99256.66;4969614;28;20355;-75
2022/11/21 03:57:27;;;;;;;0.82;0.80;;;6.60;99.90;;;6.50;100.00;99256.69;4980832;28;20240;-75
2022/11/21 03:59:54;;;;;;;0.80;0.80;;;6.60;99.90;;;6.47;100.00;99259.28;4977458;28;20263;-75
2022/11/21 04:02:21;;;;;;;1.23;1.05;;;6.60;99.90;;;6.42;100.00;99275.00;4967102;28;20304;-76
2022/11/21 04:04:48;;;;;;;2.47;1.55;;;6.50;99.90;;;6.61;100.00;99278.66;4972838;28;20221;-77
2022/11/21 04:07:15;;;;;;;0.73;0.70;;;6.60;99.90;;;6.71;100.00;99282.22;4968903;28;20727;-76
2022/11/21 04:09:43;;;;;;;1.35;1.00;;;6.80;99.90;;;6.82;100.00;99274.41;4971001;28;20233;-76
2022/11/21 04:12:10;;;;;;;0.82;0.80;;;6.80;99.90;;;6.79;100.00;99262.13;4973180;28;20237;-76
2022/11/21 04:14:37;;;;;;;1.45;1.05;;;6.90;99.90;;;6.73;100.00;99251.56;4963098;28;20237;-76
2022/11/21 04:17:04;;;;;;;1.00;0.90;;;6.80;99.90;;;6.65;100.00;99245.41;4986829;28;20236;-76
2022/11/21 04:19:31;;;;;;;1.00;0.90;;;6.70;99.90;;;6.62;100.00;99241.00;4980657;28;20280;-76
2022/11/21 04:21:58;;;;;;;1.00;0.85;;;6.70;99.90;;;6.55;100.00;99247.09;4978550;28;20240;-75
2022/11/21 04:24:25;;;;;;;1.23;1.10;;;6.70;99.90;;;6.56;100.00;99251.47;4980954;28;20237;-76
2022/11/21 04:26:55;;;;;;;0.68;0.68;;;6.70;99.90;;;6.62;100.00;99250.63;4962037;28;20248;-77
2022/11/21 04:29:22;;;;;;;1.00;0.90;;;6.70;99.90;;;6.61;100.00;99251.50;4953516;28;20294;-76
2022/11/21 04:31:49;;;;;;;1.55;1.20;;;6.70;99.90;;;6.66;100.00;99248.03;4971746;28;20252;-76
2022/11/21 04:34:16;;;;;;;1.10;0.93;;;6.70;99.90;;;6.67;100.00;99244.53;4982505;28;20245;-77
2022/11/21 04:36:43;;;;;;;1.08;0.90;;;6.70;99.90;;;6.62;100.00;99243.63;4971092;28;20236;-76
2022/11/21 04:39:11;;;;;;;1.17;0.82;;;6.70;99.90;;;6.62;100.00;99248.88;4968372;28;20252;-77
2022/11/21 04:41:38;;;;;;;1.23;0.90;;;6.70;99.90;;;6.76;100.00;99254.22;4987079;28;20666;-76
2022/11/21 04:44:05;;;;;;;1.35;1.00;;;6.80;99.90;;;6.79;100.00;99240.22;4966850;28;20293;-76
2022/11/21 04:46:32;;;;;;;0.70;0.70;;;6.90;99.90;;;6.76;100.00;99237.56;4974128;28;20304;-77
2022/11/21 04:48:59;;;;;;;1.33;1.00;;;6.80;99.90;;;6.77;100.00;99231.44;4967630;28;20242;-76
2022/11/21 04:51:27;;;;;;;0.90;0.85;;;6.80;99.90;;;6.81;100.00;99227.97;4980857;28;20228;-77
2022/11/21 04:53:54;;;;;;;0.80;0.80;;;6.90;99.90;;;6.98;100.00;99235.06;4976248;28;20237;-77
2022/11/21 04:56:21;;;;;;;0.77;0.77;;;7.00;99.90;;;7.00;100.00;99232.44;4972601;28;20256;-77
2022/11/21 04:58:52;;;;;;;1.00;0.90;;;7.10;99.90;;;6.92;100.00;99218.38;4979027;28;20323;-77
2022/11/21 05:01:19;;;;;;;4.82;1.98;;;7.00;99.90;;;7.01;100.00;99227.19;4959551;28;20312;-76
2022/11/21 05:03:46;;;;;;;6.13;2.45;;;7.00;99.90;;;6.90;100.00;99205.25;4978935;28;20588;-76
2022/11/21 05:06:13;;;;;;;4.72;1.88;;;7.00;99.90;;;6.97;100.00;99208.78;4969568;28;20245;-75
2022/11/21 05:08:40;;;;;;;4.60;1.95;;;7.00;99.90;;;6.96;100.00;99207.00;4964611;28;20236;-78
2022/11/21 05:13:53;;;;;;;7.43;3.08;;;7.00;99.90;;;6.81;100.00;99201.69;5009135;28;20253;-82
2022/11/21 05:16:20;;;;;;;1.30;1.20;;;6.90;99.90;;;6.79;100.00;99209.56;5006614;28;20274;-82
2022/11/21 05:18:47;;;;;;;1.88;1.73;;;6.90;99.90;;;6.74;100.00;99212.19;4987185;28;20235;-79
2022/11/21 05:21:15;;;;;;;6.53;2.75;;;6.80;99.90;;;6.73;100.00;99215.69;5005012;28;20262;-82
2022/11/21 05:23:42;;;;;;;6.75;2.92;;;6.80;99.90;;;6.72;100.00;99218.28;4985933;28;20587;-82
2022/11/21 05:26:09;;;;;;;8.20;3.20;;;6.80;99.90;;;6.82;100.00;99217.47;5002611;28;20250;-78
2022/11/21 05:28:36;;;;;;;7.28;3.08;;;6.90;99.90;;;6.80;100.00;99211.31;4990355;28;20267;-78
2022/11/21 05:31:03;;;;;;;6.32;2.78;;;6.90;99.90;;;6.74;100.00;99211.28;4987492;28;20231;-79
2022/11/21 05:33:30;;;;;;;5.40;2.35;;;6.80;99.90;;;6.67;100.00;99199.88;5010554;28;20235;-81
2022/11/21 05:35:57;;;;;;;5.53;2.38;;;6.70;99.90;;;6.66;100.00;99200.75;4993572;28;20255;-80
2022/11/21 05:38:24;;;;;;;1.00;0.90;;;6.70;99.90;;;6.60;100.00;99216.47;4987684;28;20290;-83
2022/11/21 05:40:52;;;;;;;1.10;1.00;;;6.70;99.90;;;6.67;100.00;99213.03;4999801;28;20247;-81
2022/11/21 05:46:04;;;;;;;1.13;1.02;;;6.80;99.90;;;6.65;100.00;99206.88;5004290;28;20250;-79
2022/11/21 05:48:33;;;;;;;1.27;1.17;;;6.70;99.90;;;6.60;100.00;99199.84;5006294;28;20314;-81
2022/11/21 05:51:00;;;;;;;1.48;1.30;;;6.70;99.90;;;6.55;100.00;99210.31;5005263;28;20263;-81
2022/11/21 05:53:27;;;;;;;1.30;1.20;;;6.60;99.90;;;6.61;100.00;99223.50;4992719;28;20314;-80
2022/11/21 05:55:54;;;;;;;4.85;2.10;;;6.60;99.90;;;6.62;100.00;99221.75;5004906;28;20266;-82
2022/11/21 05:58:21;;;;;;;6.65;2.80;;;6.60;99.90;;;6.61;100.00;99214.75;4990678;28;20759;-82
2022/11/21 06:00:48;;;;;;;8.07;3.22;;;6.70;99.90;;;6.57;100.00;99199.84;4996623;28;20268;-80
2022/11/21 06:03:33;;;;;;;7.03;2.78;;;6.60;99.90;;;6.54;100.00;99197.19;5007861;28;20219;-81
2022/11/21 06:06:12;;;;;;;1.15;1.00;;;6.60;99.90;;;6.45;100.00;99199.72;5002301;28;20314;-82
2022/11/21 06:08:45;;;;;;;7.45;3.08;;;6.50;99.90;;;6.35;100.00;99194.44;5001392;28;20664;-82
2022/11/21 06:11:15;;;;;;;5.32;2.40;;;6.50;99.90;;;6.37;100.00;99202.31;4988656;28;20275;-81
2022/11/21 06:13:42;;;;;;;6.50;2.90;;;6.40;99.90;;;6.30;100.00;99208.38;4978006;28;20314;-81
2022/11/21 06:16:13;;;;;;;7.78;3.35;;;6.40;99.90;;;6.32;100.00;99218.03;4996243;28;20248;-80
2022/11/21 06:18:43;;;;;;;1.83;1.50;;;6.40;99.90;;;6.42;100.00;99216.34;4999434;28;20590;-79
2022/11/21 06:21:25;;;;;;;0.60;0.60;;;6.40;99.90;;;6.35;100.00;99210.19;4987216;28;20671;-80
2022/11/21 06:23:55;;;;;;;6.28;2.72;;;6.40;99.90;;;6.29;100.00;99217.13;5006097;28;20694;-79
2022/11/21 06:26:25;;;;;;;9.57;3.80;;;6.40;99.90;;;6.26;100.00;99211.88;4985157;28;20231;-79
2022/11/21 06:28:54;;;;;;;6.70;2.78;;;6.30;99.90;;;6.28;100.00;99216.25;5006149;28;20236;-80
2022/11/21 06:31:26;;;;;;;8.25;3.58;;;6.30;99.90;;;6.29;100.00;99209.25;4977244;28;20286;-80
2022/11/21 06:33:58;;;;;;;6.57;2.70;;;6.40;99.90;;;6.25;100.00;99207.47;4990325;28;20695;-81
2022/11/21 06:36:25;;;;;;;7.15;3.45;;;6.30;99.90;;;6.31;100.00;99216.28;4996642;28;20262;-81
2022/11/21 06:38:54;;;;;;;5.78;2.20;;;6.30;99.90;;;6.27;100.00;99219.75;5008953;28;20326;-82
2022/11/21 06:41:24;;;;;;;5.93;2.53;;;6.30;99.90;;;6.27;100.00;99222.38;5009336;28;20259;-82
2022/11/21 06:43:52;;;;;;;0.50;0.50;;;6.30;99.90;;;6.22;100.00;99217.97;5005873;28;20252;-82
2022/11/21 06:46:19;;;;;;;7.07;2.97;;;6.30;99.90;;;6.21;100.00;99210.97;5004962;28;20656;-82
2022/11/21 06:48:46;;;;;;;9.15;3.03;;;6.30;99.90;;;6.18;100.00;99208.31;5007821;28;20231;-82
2022/11/21 06:51:19;;;;;;;8.77;2.92;;;6.20;99.90;;;6.22;100.00;99215.34;4995031;28;20246;-82
2022/11/21 06:53:54;;;;;;;9.48;3.30;;;6.30;99.90;;;6.09;100.00;99207.38;4995465;28;20235;-82
2022/11/21 06:56:26;;;;;;;1.13;1.05;;;6.10;99.90;;;5.98;100.00;99195.03;5005376;28;20241;-81
2022/11/21 06:58:54;;;;;;;11.15;4.22;;;6.10;99.90;;;5.98;100.00;99201.19;5007213;28;20261;-81
2022/11/21 07:01:22;;;;;;;7.05;2.60;;;6.00;99.90;;;6.07;100.00;99218.72;5007834;28;20311;-81
2022/11/21 07:03:50;;;;;;;8.95;3.53;;;6.10;99.90;;;6.07;100.00;99205.63;5007665;28;20232;-81
2022/11/21 07:06:17;;;;;;;8.25;3.00;;;6.10;99.90;;;6.01;100.00;99200.31;4977794;28;20254;-81
2022/11/21 07:08:44;;;;;;;8.10;3.00;;;6.10;99.90;;;6.09;100.00;99206.50;5007651;28;20375;-81
2022/11/21 07:11:13;;;;;;;0.50;0.50;;;6.00;99.90;;;5.89;100.00;99193.22;4988628;28;20283;-81
2022/11/21 07:13:55;;;;;;;1.45;1.13;;;6.00;99.90;;;5.79;100.00;99194.00;5009445;28;20231;-81
2022/11/21 07:16:24;;;;;;;7.13;2.85;;;5.90;99.90;;;5.80;100.00;99193.13;4997089;28;20326;-81
2022/11/21 07:18:52;;;;;;;6.38;2.60;;;5.90;99.90;;;5.76;100.00;99197.47;5009265;28;20254;-81
2022/11/21 07:21:19;;;;;;;6.43;2.47;;;5.90;99.90;;;5.72;100.00;99195.69;5008828;28;20235;-82
2022/11/21 07:23:47;;;;;;;7.97;3.42;;;5.80;99.90;;;5.82;100.00;99206.25;5009130;28;20318;-81
2022/11/21 07:26:14;;;;;;;8.40;3.22;;;5.80;99.90;;;5.80;100.00;99203.63;5009243;28;20235;-81
2022/11/21 07:28:42;;;;;;;7.35;3.03;;;5.90;99.90;;;5.75;100.00;99192.22;5008821;28;20232;-81
2022/11/21 07:31:09;;;;;;;5.63;2.22;;;5.80;99.90;;;5.88;100.00;99196.69;4990909;28;20322;-82
2022/11/21 07:33:42;;;;;;;7.75;2.97;;;5.90;99.90;;;5.81;100.00;99194.00;4980829;28;20260;-82
2022/11/21 07:36:11;;;;;;;6.78;2.70;;;5.80;99.90;;;5.83;100.00;99203.63;5001123;28;20245;-82
2022/11/21 07:38:39;;;;;;;7.57;2.97;;;5.90;99.90;;;5.90;100.00;99199.34;5008562;28;20235;-82
2022/11/21 07:41:06;;;;;;;7.55;2.75;;;5.90;99.90;;;6.08;100.00;99226.63;5008440;28;20594;-82
2022/11/21 07:43:33;;;;;;;9.23;3.35;;;6.10;99.90;;;6.04;100.00;99214.34;5007568;28;20232;-82
2022/11/21 07:46:00;;;;;;;7.65;2.97;;;6.50;99.90;;;5.94;100.00;99209.00;5008343;28;20274;-82
2022/11/21 07:48:28;;;;;;;8.35;3.20;;;6.00;99.90;;;5.89;100.00;99200.19;5009375;28;20323;-81
2022/11/21 07:50:55;;;;;;;7.63;2.95;;;6.00;99.90;;;5.83;100.00;99194.91;5011092;28;20282;-81
2022/11/21 07:53:23;;;;;;;5.68;2.20;;;5.90;99.90;;;5.82;100.00;99187.88;5011619;28;20236;-82
2022/11/21 07:55:50;;;;;;;7.85;2.90;;;5.90;99.90;;;5.94;100.00;99193.28;5009968;28;20228;-82
2022/11/21 07:58:17;;;;;;;7.80;2.88;;;6.00;99.90;;;5.85;100.00;99177.41;5010581;28;20288;-82
2022/11/21 08:00:44;;;;;;;0.73;0.60;;;5.90;99.90;;;5.88;100.00;99177.44;5009863;28;20235;-82
2022/11/21 08:03:12;;;;;;;7.72;3.03;;;5.90;99.90;;;5.90;100.00;99166.13;5010697;28;20232;-82
2022/11/21 08:05:42;;;;;;;9.13;3.58;;;5.90;99.90;;;5.83;100.00;99158.16;5005151;28;20279;-82
2022/11/21 08:08:11;;;;;;;6.72;2.80;;;5.90;99.90;;;5.83;100.00;99171.28;4981640;28;20291;-81
2022/11/21 08:10:45;;;;;;;8.15;3.13;;;5.90;99.90;;;5.95;100.00;99174.03;4973739;28;20236;-81
2022/11/21 08:13:13;;;;;;;8.80;3.28;;;6.00;99.90;;;6.15;100.00;99182.91;4991825;28;20573;-81
2022/11/21 08:15:41;;;;;;;7.50;2.83;;;6.10;99.90;;;6.15;100.00;99175.03;4991903;28;20240;-81
2022/11/21 08:18:08;;;;;;;7.68;2.97;;;6.20;99.90;;;6.18;100.00;99164.56;5003397;28;20236;-82
2022/11/21 08:20:36;;;;;;;0.70;0.70;;;6.30;99.90;;;6.18;100.00;99172.44;4996452;28;20228;-81
2022/11/21 08:23:05;;;;;;;6.80;2.72;;;6.20;99.90;;;6.26;100.00;99175.13;4996237;28;20281;-82
2022/11/21 08:25:36;;;;;;;5.43;2.20;;;6.30;99.90;;;6.26;100.00;99164.63;5013544;28;20243;-81
2022/11/21 08:28:04;;;;;;;8.20;3.05;;;6.30;99.90;;;6.35;99.94;99159.41;4995329;28;20290;-82
2022/11/21 08:30:32;;;;;;;6.90;2.80;;;6.30;99.90;;;6.33;100.00;99154.16;4995629;28;20302;-82
2022/11/21 08:33:00;;;;;;;7.32;2.88;;;6.40;99.90;;;6.33;99.85;99155.91;5007628;28;20322;-82
2022/11/21 08:35:28;;;;;;;5.72;2.35;;;6.30;99.90;;;6.25;99.81;99145.34;5006330;28;20683;-82
2022/11/21 08:38:00;;;;;;;6.40;2.97;;;6.30;99.90;;;6.36;98.56;99148.03;4996582;28;20258;-82
2022/11/21 08:40:30;;;;;;;7.82;2.92;;;6.40;99.90;;;6.34;98.45;99136.66;5014447;28;20281;-82
2022/11/21 08:42:58;;;;;;;4.35;2.30;;;6.30;99.90;;;6.39;98.35;99137.56;5013910;28;20231;-82
2022/11/21 08:45:25;;;;;;;1.65;1.20;;;6.40;99.90;;;6.40;99.10;99145.44;5012615;28;20232;-82
2022/11/21 08:47:53;;;;;;;0.80;0.80;;;6.50;99.90;;;6.60;98.31;99158.69;4996130;28;20314;-82
2022/11/21 08:50:22;;;;;;;6.60;2.78;;;6.50;99.90;;;6.73;97.93;99159.63;4995734;28;20262;-82
2022/11/21 08:52:50;;;;;;;0.60;0.60;;;6.70;99.90;;;6.77;98.04;99147.38;5012816;28;20228;-82
2022/11/21 08:55:17;;;;;;;7.22;2.85;;;6.70;99.90;;;6.79;97.61;99151.78;5013241;28;20319;-82
2022/11/21 08:57:44;;;;;;;7.05;2.75;;;6.80;99.90;;;6.97;97.48;99149.19;5008415;28;20259;-81
2022/11/21 09:00:12;;;;;;;6.30;2.53;;;6.90;99.90;;;7.01;95.85;99142.19;5004471;28;20230;-81
2022/11/21 09:02:39;;;;;;;7.40;2.97;;;7.00;99.90;;;7.08;95.66;99138.72;5010286;28;20282;-82
2022/11/21 09:05:07;;;;;;;2.92;1.85;;;7.10;99.90;;;7.11;95.87;99143.97;4977518;28;20252;-85
2022/11/21 09:07:35;;;;;;;7.03;2.85;;;7.10;99.90;;;7.07;96.94;99148.34;5014215;28;20228;-82
2022/11/21 09:10:03;;;;;;;5.90;2.63;;;7.10;99.90;;;7.24;95.71;99172.03;5006642;28;20251;-83
2022/11/21 09:12:30;;;;;;;7.93;3.10;;;7.20;99.90;;;7.23;95.04;99143.13;5000771;28;20277;-83
2022/11/21 09:20:33;;;;;;;7.00;2.88;;;7.30;99.90;;;7.28;95.56;99147.50;5011318;28;20309;-82
2022/11/21 09:23:08;;;;;;;7.07;2.85;;;7.30;99.90;;;7.27;95.44;99137.00;5013285;28;20228;-81
2022/11/21 09:25:36;;;;;;;7.00;2.88;;;7.30;99.90;;;7.39;95.79;99145.78;5007717;28;20295;-82
2022/11/21 09:28:05;;;;;;;7.57;3.15;;;7.40;99.90;;;7.36;95.20;99135.25;5007158;28;20262;-82
2022/11/21 09:30:33;;;;;;;9.27;3.55;;;7.40;99.90;;;7.40;94.34;99120.34;5008323;28;20239;-82
2022/11/21 09:33:06;;;;;;;7.10;2.80;;;7.40;99.90;;;7.54;93.94;99113.34;5009831;28;20232;-82
2022/11/21 09:35:33;;;;;;;3.70;2.13;;;7.50;99.90;;;7.67;93.29;99101.94;5011158;28;20231;-81
2022/11/21 09:38:01;;;;;;;0.60;0.60;;;7.70;99.90;;;7.63;93.16;99101.94;5014181;28;20299;-81
2022/11/21 09:40:30;;;;;;;6.78;2.80;;;7.60;99.90;;;7.68;92.83;99079.13;5014989;28;20231;-81
2022/11/21 09:42:57;;;;;;;5.93;2.53;;;7.70;99.90;;;7.70;92.72;99078.25;5014952;28;20232;-82
2022/11/21 09:45:35;;;;;;;6.30;2.70;;;7.70;99.90;;;7.78;91.22;99064.22;5013796;28;20290;-82
2022/11/21 09:48:23;;;;;;;6.70;2.78;;;7.80;99.90;;;7.80;91.44;99067.72;4995789;28;20231;-83
2022/11/21 09:50:58;;;;;;;5.82;2.53;;;7.80;99.90;;;7.92;91.41;99068.59;4995542;28;20289;-82
2022/11/21 09:53:38;;;;;;;5.50;2.53;;;7.90;99.90;;;7.91;91.79;99076.50;4996324;28;20632;-82
2022/11/21 09:56:14;;;;;;;6.50;2.70;;;7.90;99.90;;;8.07;91.25;99074.72;4995157;28;20266;-82
2022/11/21 09:59:10;;;;;;;5.22;2.30;;;8.00;99.90;;;8.06;90.31;99044.00;4995456;28;20302;-83
2022/11/21 10:01:37;;;;;;;0.85;0.85;;;8.10;99.90;;;8.07;89.53;99020.28;4983379;28;20232;-82
2022/11/21 10:04:04;;;;;;;0.65;0.63;;;8.10;99.90;;;8.09;89.48;99009.75;4976039;28;20259;-82
2022/11/21 10:06:44;;;;;;;0.52;0.52;;;8.10;99.90;;;8.24;89.43;99028.13;4993591;28;20322;-83
2022/11/21 10:09:54;;;;;;;0.60;0.52;;;8.20;99.90;;;8.33;89.44;99031.63;4995116;28;20672;-83
2022/11/21 10:12:51;;;;;;;0.50;0.50;;;8.30;99.90;;;8.41;88.96;99026.31;5014161;28;20258;-82
2022/11/21 10:15:45;;;;;;;0.60;0.60;;;8.40;99.90;;;8.45;89.08;99021.91;4990955;28;20440;-83
2022/11/21 10:19:03;;;;;;;0.45;0.45;;;8.90;99.90;;;8.59;87.75;99017.44;4938433;28;20228;-83
2022/11/21 10:21:56;;;;;;;0.43;0.43;;;8.50;99.90;;;8.68;87.59;99005.97;4992201;28;20235;-83
2022/11/21 10:25:13;;;;;;;0.43;0.43;;;8.60;99.90;;;8.73;86.12;98972.56;4994585;28;20262;-84
2022/11/21 10:28:22;;;;;;;0.52;0.52;;;8.70;99.90;;;8.74;85.16;98947.97;5001960;28;20251;-82
2022/11/21 10:30:50;;;;;;;0.40;0.40;;;8.70;99.90;;;8.76;84.92;98922.47;4973044;28;20240;-82
2022/11/21 10:33:31;;;;;;;6.43;2.72;;;8.70;99.90;;;8.94;85.05;98943.41;4994881;28;20235;-84
2022/11/21 10:36:11;;;;;;;5.63;2.55;;;8.90;99.90;;;8.72;83.74;98865.41;5012103;28;20262;-82
2022/11/21 10:38:42;;;;;;;5.80;2.58;;;8.80;99.90;;;8.89;83.05;98867.00;4994538;28;20231;-83
2022/11/21 10:41:36;;;;;;;6.97;2.85;;;8.80;99.90;;;8.97;82.90;98853.75;4978520;28;20282;-82
2022/11/21 10:47:29;;;;;;;7.18;3.10;;;8.90;99.90;;;9.26;83.24;98893.91;5011935;28;20317;-82
2022/11/21 10:50:08;;;;;;;4.57;2.10;;;9.10;99.90;;;9.30;82.04;98842.88;5012574;28;20279;-83
2022/11/21 10:53:00;;;;;;;4.45;2.20;;;9.30;99.90;;;9.16;82.43;98818.41;4976289;28;20283;-82
2022/11/21 10:55:27;;;;;;;6.30;2.50;;;9.10;99.90;;;9.20;81.83;98817.50;4992325;28;20278;-83
2022/11/21 10:57:54;;;;;;;5.53;2.58;;;9.10;99.90;;;9.25;81.57;98791.94;4992878;28;20267;-83